Time;durP1;ratioP1;P1;durP2;ratioP2;P2;SDS_P1;SDS_P2;PMS_P1;PMS_P2;Temp;Humidity;BMP_temperature;BMP_pressure;BME280_temperature;BME280_humidity;BME280_pressure;Samples;Min_cycle;Max_cycle;Signal;HPM_P1;HPM_P2
2023/03/19 00:00:33;;;;;;;10.93;10.63;;;9.80;99.90;;;;;;5085629;28;20248;-80
2023/03/19 00:03:02;;;;;;;11.03;10.73;;;9.80;99.90;;;;;;5085562;28;20254;-80
2023/03/19 00:05:32;;;;;;;11.20;10.90;;;9.70;99.90;;;;;;5086936;28;20249;-81
2023/03/19 00:08:04;;;;;;;10.90;10.60;;;9.70;99.90;;;;;;5084458;28;20238;-81
2023/03/19 00:10:32;;;;;;;10.93;10.63;;;9.70;99.90;;;;;;5084313;28;20810;-81
2023/03/19 00:13:02;;;;;;;11.10;10.80;;;9.60;99.90;;;;;;5084726;28;20230;-81
2023/03/19 00:15:31;;;;;;;11.40;11.00;;;9.50;99.90;;;;;;5083019;28;20233;-81
2023/03/19 00:18:00;;;;;;;11.40;11.00;;;9.40;99.90;;;;;;5084246;28;20225;-81
2023/03/19 00:20:39;;;;;;;11.07;10.77;;;9.40;99.90;;;;;;5083555;28;20244;-80
2023/03/19 00:23:08;;;;;;;10.90;10.60;;;9.30;99.90;;;;;;5083295;28;20261;-81
2023/03/19 00:25:38;;;;;;;10.97;10.67;;;9.30;99.90;;;;;;5083340;28;20350;-81
2023/03/19 00:28:08;;;;;;;11.30;10.90;;;9.30;99.90;;;;;;5083213;28;20694;-81
2023/03/19 00:30:36;;;;;;;11.07;10.77;;;9.20;99.90;;;;;;5082949;28;20238;-80
2023/03/19 00:33:04;;;;;;;11.00;10.70;;;9.20;99.90;;;;;;5082272;28;20324;-81
2023/03/19 00:35:36;;;;;;;11.40;11.00;;;9.00;99.90;;;;;;5082774;28;20309;-81
2023/03/19 00:38:05;;;;;;;10.93;10.63;;;8.90;99.90;;;;;;5082464;28;20233;-81
2023/03/19 00:40:34;;;;;;;11.43;11.03;;;8.80;99.90;;;;;;5082698;28;20245;-81
2023/03/19 00:43:04;;;;;;;11.43;11.03;;;8.70;99.90;;;;;;5082597;28;20266;-81
2023/03/19 00:45:32;;;;;;;11.17;10.83;;;8.70;99.90;;;;;;5081909;28;20299;-81
2023/03/19 00:48:00;;;;;;;11.40;11.00;;;8.70;99.90;;;;;;5082388;28;20232;-80
2023/03/19 00:50:28;;;;;;;11.47;11.07;;;8.70;99.90;;;;;;5082752;28;20821;-81
2023/03/19 00:53:05;;;;;;;11.40;11.00;;;8.70;99.90;;;;;;5082607;28;20236;-81
2023/03/19 00:55:32;;;;;;;11.27;10.87;;;8.70;99.90;;;;;;5083766;28;20217;-81
2023/03/19 00:58:01;;;;;;;11.17;10.87;;;8.60;99.90;;;;;;5080742;28;20215;-81
2023/03/19 01:00:30;;;;;;;11.40;11.00;;;8.60;99.90;;;;;;5080840;28;20242;-81
2023/03/19 01:02:59;;;;;;;11.10;10.80;;;8.60;99.90;;;;;;5082139;28;20234;-80
2023/03/19 01:05:29;;;;;;;11.47;11.07;;;8.50;99.90;;;;;;5081720;28;20238;-81
2023/03/19 01:08:00;;;;;;;11.37;10.97;;;8.50;99.90;;;;;;5081930;28;20249;-80
2023/03/19 01:10:27;;;;;;;11.27;10.90;;;8.50;99.90;;;;;;5083974;28;20269;-81
2023/03/19 01:12:57;;;;;;;11.17;10.80;;;8.40;99.90;;;;;;5082715;28;20236;-81
2023/03/19 01:15:26;;;;;;;11.10;10.80;;;8.40;99.90;;;;;;5081920;28;20282;-81
2023/03/19 01:17:56;;;;;;;11.03;10.73;;;8.40;99.90;;;;;;5082017;28;20289;-81
2023/03/19 01:20:26;;;;;;;10.87;10.57;;;8.40;99.90;;;;;;5082586;28;20234;-82
2023/03/19 01:22:55;;;;;;;11.13;10.83;;;8.40;99.90;;;;;;5082643;28;20318;-81
2023/03/19 01:25:26;;;;;;;11.10;10.80;;;8.40;99.90;;;;;;5083015;28;20289;-81
2023/03/19 01:27:54;;;;;;;10.97;10.67;;;8.50;99.90;;;;;;5081953;28;20225;-81
2023/03/19 01:30:23;;;;;;;10.80;10.50;;;8.40;99.90;;;;;;5082332;28;20242;-81
2023/03/19 01:32:53;;;;;;;10.73;10.43;;;8.40;99.90;;;;;;5081840;28;20240;-81
2023/03/19 01:35:22;;;;;;;10.90;10.60;;;8.40;99.90;;;;;;5085147;28;20238;-81
2023/03/19 01:37:53;;;;;;;10.70;10.40;;;8.40;99.90;;;;;;5088302;28;20226;-81
2023/03/19 01:40:22;;;;;;;10.90;10.60;;;8.40;99.90;;;;;;5084140;28;20269;-81
2023/03/19 01:42:56;;;;;;;10.70;10.40;;;8.50;99.90;;;;;;5090833;28;20268;-80
2023/03/19 01:45:38;;;;;;;10.90;10.60;;;8.50;99.90;;;;;;5085617;28;20273;-81
2023/03/19 01:48:07;;;;;;;10.90;10.60;;;8.50;99.90;;;;;;5063441;28;20232;-81
2023/03/19 01:50:43;;;;;;;11.00;10.70;;;8.40;99.90;;;;;;5073038;28;20233;-80
2023/03/19 01:53:16;;;;;;;11.00;10.70;;;8.40;99.90;;;;;;5069555;28;20238;-81
2023/03/19 01:55:44;;;;;;;10.80;10.50;;;8.30;99.90;;;;;;5061678;28;20249;-81
2023/03/19 01:58:16;;;;;;;10.80;10.50;;;8.30;99.90;;;;;;5060473;28;20215;-81
2023/03/19 02:00:45;;;;;;;10.93;10.63;;;8.20;99.90;;;;;;5060441;28;20244;-81
2023/03/19 02:03:14;;;;;;;11.17;10.80;;;8.10;99.90;;;;;;5074796;28;20255;-80
2023/03/19 02:05:44;;;;;;;10.90;10.60;;;8.10;99.90;;;;;;5080294;28;20280;-81
2023/03/19 02:08:15;;;;;;;11.30;10.90;;;8.10;99.90;;;;;;5080283;28;20232;-80
2023/03/19 02:10:45;;;;;;;11.07;10.77;;;8.10;99.90;;;;;;5079970;28;20303;-81
2023/03/19 02:13:15;;;;;;;10.97;10.67;;;8.20;99.90;;;;;;5080035;28;20234;-81
2023/03/19 02:15:43;;;;;;;10.80;10.50;;;8.10;99.90;;;;;;5081368;28;20234;-80
2023/03/19 02:18:11;;;;;;;11.40;11.00;;;8.10;99.90;;;;;;5081025;28;20238;-80
2023/03/19 02:20:49;;;;;;;11.40;11.00;;;8.00;99.90;;;;;;5081084;28;20253;-80
2023/03/19 02:23:30;;;;;;;10.87;10.57;;;8.10;99.90;;;;;;5081117;28;20226;-81
2023/03/19 02:26:05;;;;;;;10.87;10.57;;;8.10;99.90;;;;;;5080579;28;20237;-80
2023/03/19 02:28:36;;;;;;;11.10;10.80;;;8.10;99.90;;;;;;5079368;28;20225;-81
2023/03/19 02:31:05;;;;;;;11.10;10.80;;;8.10;99.90;;;;;;5080188;28;20771;-80
2023/03/19 02:33:34;;;;;;;11.30;10.90;;;8.10;99.90;;;;;;5080912;28;20286;-80
2023/03/19 02:36:04;;;;;;;11.30;10.90;;;8.10;99.90;;;;;;5080400;28;20257;-80
2023/03/19 02:38:34;;;;;;;11.30;10.90;;;8.10;99.90;;;;;;5079738;28;20341;-80
2023/03/19 02:41:11;;;;;;;11.37;10.97;;;8.10;99.90;;;;;;5068393;28;20317;-80
2023/03/19 02:43:41;;;;;;;11.30;10.90;;;8.10;99.90;;;;;;5061159;28;20233;-80
2023/03/19 02:46:12;;;;;;;11.40;11.00;;;8.00;99.90;;;;;;5062759;28;20298;-79
2023/03/19 02:48:40;;;;;;;11.30;10.90;;;7.90;99.90;;;;;;5062675;28;20227;-80
2023/03/19 02:51:09;;;;;;;11.30;10.90;;;7.80;99.90;;;;;;5062694;28;20262;-80
2023/03/19 02:53:38;;;;;;;11.50;11.10;;;7.80;99.90;;;;;;5062913;28;20234;-80
2023/03/19 02:56:09;;;;;;;11.30;10.90;;;7.80;99.90;;;;;;5062426;28;20223;-80
2023/03/19 02:58:37;;;;;;;11.33;10.93;;;7.80;99.90;;;;;;5063055;28;20261;-80
2023/03/19 03:01:06;;;;;;;11.50;11.10;;;7.80;99.90;;;;;;5062254;28;20243;-80
2023/03/19 03:03:36;;;;;;;11.60;11.20;;;7.80;99.90;;;;;;5063358;28;20242;-80
2023/03/19 03:06:05;;;;;;;11.50;11.10;;;7.80;99.90;;;;;;5061625;28;20261;-80
2023/03/19 03:08:35;;;;;;;11.20;10.80;;;7.70;99.90;;;;;;5062247;28;20235;-80
2023/03/19 03:11:04;;;;;;;11.33;10.93;;;7.70;99.90;;;;;;5062567;28;20231;-80
2023/03/19 03:13:36;;;;;;;11.50;11.10;;;7.70;99.90;;;;;;5070047;28;20226;-80
2023/03/19 03:16:03;;;;;;;11.10;10.80;;;7.60;99.90;;;;;;5063125;28;20239;-80
2023/03/19 03:18:32;;;;;;;11.60;11.20;;;7.70;99.90;;;;;;5062387;28;20283;-80
2023/03/19 03:21:02;;;;;;;11.30;10.90;;;7.70;99.90;;;;;;5062318;28;20266;-80
2023/03/19 03:23:31;;;;;;;11.30;10.90;;;7.70;99.90;;;;;;5063352;28;20350;-80
2023/03/19 03:26:00;;;;;;;11.30;10.90;;;7.70;99.90;;;;;;5062057;28;20339;-80
2023/03/19 03:28:28;;;;;;;11.00;10.70;;;7.70;99.90;;;;;;5062084;28;20266;-82
2023/03/19 03:31:02;;;;;;;11.40;11.00;;;7.70;99.90;;;;;;5062062;28;20298;-80
2023/03/19 03:33:30;;;;;;;10.83;10.53;;;7.70;99.90;;;;;;5062093;28;20232;-81
2023/03/19 03:36:00;;;;;;;11.07;10.77;;;7.80;99.90;;;;;;5061538;28;20282;-80
2023/03/19 03:38:28;;;;;;;11.20;10.80;;;7.80;99.90;;;;;;5062057;28;20230;-81
2023/03/19 03:40:58;;;;;;;11.13;10.73;;;7.80;99.90;;;;;;5059069;28;20242;-80
2023/03/19 03:43:27;;;;;;;11.00;10.70;;;7.80;99.90;;;;;;5070321;28;20314;-80
2023/03/19 03:45:57;;;;;;;11.20;10.80;;;7.80;99.90;;;;;;5082016;28;20230;-80
2023/03/19 03:48:28;;;;;;;11.00;10.70;;;7.80;99.90;;;;;;5072706;28;20273;-80
2023/03/19 03:50:56;;;;;;;11.10;10.73;;;7.80;99.90;;;;;;5063844;28;20250;-80
2023/03/19 03:53:24;;;;;;;11.20;10.80;;;7.80;99.90;;;;;;5065328;28;20234;-80
2023/03/19 03:55:53;;;;;;;11.00;10.70;;;7.80;99.90;;;;;;5072012;28;20244;-80
2023/03/19 03:58:23;;;;;;;11.00;10.70;;;7.70;99.90;;;;;;5086473;28;20257;-80
2023/03/19 04:00:53;;;;;;;10.90;10.60;;;7.70;99.90;;;;;;5085008;28;20238;-82
2023/03/19 04:03:24;;;;;;;11.00;10.70;;;7.70;99.90;;;;;;5082649;28;20234;-80
2023/03/19 04:06:04;;;;;;;10.90;10.60;;;7.70;99.90;;;;;;5083194;28;20324;-80
2023/03/19 04:08:32;;;;;;;11.40;11.00;;;7.70;99.90;;;;;;5081908;28;20273;-80
2023/03/19 04:11:02;;;;;;;11.30;10.90;;;7.70;99.90;;;;;;5081624;28;20261;-80
2023/03/19 04:13:35;;;;;;;11.00;10.70;;;7.60;99.90;;;;;;5081895;28;20235;-80
2023/03/19 04:16:03;;;;;;;10.87;10.57;;;7.50;99.90;;;;;;5081707;28;20286;-81
2023/03/19 04:18:30;;;;;;;11.17;10.80;;;7.50;99.90;;;;;;5081845;28;20230;-81
2023/03/19 04:21:00;;;;;;;11.37;10.97;;;7.50;99.90;;;;;;5081284;28;20234;-80
2023/03/19 04:23:28;;;;;;;11.00;10.70;;;7.50;99.90;;;;;;5080281;28;20295;-80
2023/03/19 04:25:59;;;;;;;10.90;10.60;;;7.50;99.90;;;;;;5061024;28;20321;-80
2023/03/19 04:28:28;;;;;;;10.80;10.50;;;7.40;99.90;;;;;;5060820;28;20227;-80
2023/03/19 04:31:00;;;;;;;10.70;10.40;;;7.40;99.90;;;;;;5059869;28;20326;-79
2023/03/19 04:33:28;;;;;;;10.70;10.40;;;7.30;99.90;;;;;;5059624;28;20231;-80
2023/03/19 04:35:56;;;;;;;10.70;10.40;;;7.30;99.90;;;;;;5059901;28;20230;-80
2023/03/19 04:38:28;;;;;;;10.50;10.20;;;7.30;99.90;;;;;;5060014;28;20223;-81
2023/03/19 04:40:56;;;;;;;10.53;10.23;;;7.30;99.90;;;;;;5059795;28;20274;-80
2023/03/19 04:43:23;;;;;;;10.73;10.43;;;7.40;99.90;;;;;;5060169;28;20254;-80
2023/03/19 04:45:53;;;;;;;10.70;10.40;;;7.40;99.90;;;;;;5060205;28;20241;-80
2023/03/19 04:48:23;;;;;;;10.80;10.50;;;7.40;99.90;;;;;;5060724;28;20223;-81
2023/03/19 04:50:55;;;;;;;10.70;10.40;;;7.50;99.90;;;;;;5060424;28;20235;-81
2023/03/19 04:53:25;;;;;;;10.57;10.27;;;7.60;99.90;;;;;;5060458;28;20230;-81
2023/03/19 04:55:52;;;;;;;10.60;10.30;;;7.60;99.90;;;;;;5060367;28;20262;-81
2023/03/19 04:58:21;;;;;;;10.80;10.50;;;7.70;99.90;;;;;;5060265;28;20227;-81
2023/03/19 05:00:49;;;;;;;10.80;10.50;;;7.80;99.90;;;;;;5059377;28;20345;-81
2023/03/19 05:03:20;;;;;;;10.83;10.53;;;7.70;99.90;;;;;;5058823;28;20227;-81
2023/03/19 05:05:49;;;;;;;10.50;10.20;;;7.70;99.90;;;;;;5058181;28;20242;-82
2023/03/19 05:08:19;;;;;;;10.80;10.50;;;7.70;99.90;;;;;;5058658;28;20250;-82
2023/03/19 05:10:50;;;;;;;10.60;10.30;;;7.70;99.90;;;;;;5059870;28;20318;-83
2023/03/19 05:13:18;;;;;;;10.43;10.13;;;7.60;99.90;;;;;;5056672;28;20246;-81
2023/03/19 05:15:47;;;;;;;10.57;10.27;;;7.70;99.90;;;;;;5059665;28;20270;-81
2023/03/19 05:18:16;;;;;;;11.03;10.73;;;7.70;99.90;;;;;;5058671;28;20230;-81
2023/03/19 05:20:44;;;;;;;10.97;10.67;;;7.70;99.90;;;;;;5059087;28;20280;-81
2023/03/19 05:23:16;;;;;;;10.90;10.60;;;7.80;99.90;;;;;;5059353;28;20233;-82
2023/03/19 05:25:45;;;;;;;10.80;10.50;;;7.80;99.90;;;;;;5067736;28;20299;-81
2023/03/19 05:28:16;;;;;;;10.80;10.50;;;7.90;99.90;;;;;;5078924;28;20218;-82
2023/03/19 05:30:44;;;;;;;10.73;10.43;;;7.90;99.90;;;;;;5069559;28;20237;-81
2023/03/19 05:33:12;;;;;;;10.83;10.53;;;7.90;99.90;;;;;;5077962;28;20309;-82
2023/03/19 05:35:42;;;;;;;10.83;10.53;;;7.90;99.90;;;;;;5070613;28;20226;-82
2023/03/19 05:38:11;;;;;;;10.70;10.40;;;7.80;99.90;;;;;;5061118;28;20226;-82
2023/03/19 05:40:41;;;;;;;10.40;10.10;;;7.90;99.90;;;;;;5061186;28;20234;-81
2023/03/19 05:43:10;;;;;;;10.40;10.10;;;7.90;99.90;;;;;;5060319;28;20222;-82
2023/03/19 05:45:50;;;;;;;10.63;10.33;;;8.00;99.90;;;;;;5060376;28;20235;-83
2023/03/19 05:48:19;;;;;;;10.57;10.27;;;7.90;99.90;;;;;;5059601;28;20218;-81
2023/03/19 05:50:48;;;;;;;10.67;10.37;;;7.90;99.90;;;;;;5059143;28;20352;-82
2023/03/19 05:53:17;;;;;;;10.60;10.30;;;7.90;99.90;;;;;;5059614;28;20240;-82
2023/03/19 05:55:47;;;;;;;10.60;10.30;;;7.90;99.90;;;;;;5058904;28;20322;-82
2023/03/19 05:58:16;;;;;;;10.67;10.37;;;7.90;99.90;;;;;;5059362;28;20422;-81
2023/03/19 06:00:47;;;;;;;10.47;10.17;;;8.00;99.90;;;;;;5059110;28;20245;-81
2023/03/19 06:03:17;;;;;;;10.43;10.13;;;8.00;99.90;;;;;;5059893;28;20322;-82
2023/03/19 06:05:46;;;;;;;10.50;10.20;;;8.10;99.90;;;;;;5060117;28;20278;-81
2023/03/19 06:08:13;;;;;;;10.50;10.20;;;8.20;99.90;;;;;;5059189;28;20767;-81
2023/03/19 06:10:47;;;;;;;10.37;10.07;;;8.20;99.90;;;;;;5068995;28;20320;-81
2023/03/19 06:13:14;;;;;;;10.80;10.50;;;8.30;99.90;;;;;;5062861;28;20395;-80
2023/03/19 06:15:43;;;;;;;10.37;10.07;;;8.40;99.90;;;;;;5058339;28;20418;-81
2023/03/19 06:18:13;;;;;;;10.43;10.13;;;8.50;99.90;;;;;;5060421;28;20221;-81
2023/03/19 06:20:41;;;;;;;10.50;10.20;;;8.60;99.90;;;;;;5067395;28;20237;-81
2023/03/19 06:23:09;;;;;;;10.53;10.23;;;8.70;99.90;;;;;;5065934;28;20290;-81
2023/03/19 06:25:37;;;;;;;10.30;10.00;;;8.70;99.90;;;;;;5062646;28;20242;-81
2023/03/19 06:28:05;;;;;;;10.47;10.17;;;8.80;99.90;;;;;;5064833;28;20235;-81
2023/03/19 06:30:33;;;;;;;10.13;9.83;;;8.80;99.90;;;;;;5062069;28;20226;-80
2023/03/19 06:33:01;;;;;;;10.20;9.90;;;8.90;99.90;;;;;;5062807;28;20234;-81
2023/03/19 06:35:31;;;;;;;10.10;9.80;;;8.90;99.90;;;;;;5063581;28;20235;-83
2023/03/19 06:38:00;;;;;;;10.00;9.70;;;9.00;99.90;;;;;;5064931;28;20234;-82
2023/03/19 06:40:29;;;;;;;10.20;9.90;;;9.00;99.90;;;;;;5064376;28;20241;-82
2023/03/19 06:42:59;;;;;;;10.37;10.07;;;9.10;99.90;;;;;;5074166;28;20234;-82
2023/03/19 06:45:29;;;;;;;9.90;9.60;;;9.10;99.90;;;;;;5067484;28;20314;-82
2023/03/19 06:47:58;;;;;;;9.93;9.63;;;9.20;99.90;;;;;;5064127;28;20238;-82
2023/03/19 06:50:28;;;;;;;10.30;10.00;;;9.20;99.90;;;;;;5063520;28;20269;-83
2023/03/19 06:52:59;;;;;;;10.07;9.77;;;9.20;99.90;;;;;;5063739;28;20231;-82
2023/03/19 06:55:26;;;;;;;10.27;9.97;;;9.20;99.90;;;;;;5064016;28;20719;-82
2023/03/19 06:57:56;;;;;;;9.93;9.63;;;9.20;99.90;;;;;;5063188;28;20227;-82
2023/03/19 07:00:26;;;;;;;10.00;9.70;;;9.30;99.90;;;;;;5063205;28;20247;-82
2023/03/19 07:02:54;;;;;;;9.97;9.67;;;9.40;99.90;;;;;;5064500;28;20255;-84
2023/03/19 07:05:24;;;;;;;9.80;9.50;;;9.50;99.90;;;;;;5062451;28;20294;-82
2023/03/19 07:07:53;;;;;;;9.73;9.43;;;9.50;99.90;;;;;;5061852;28;20235;-82
2023/03/19 07:10:24;;;;;;;9.90;9.60;;;9.50;99.90;;;;;;5061853;28;20230;-82
2023/03/19 07:12:51;;;;;;;9.90;9.60;;;9.50;99.90;;;;;;5062380;28;20231;-82
2023/03/19 07:15:20;;;;;;;10.00;9.70;;;9.60;99.90;;;;;;5062456;28;20239;-82
2023/03/19 07:17:51;;;;;;;10.07;9.77;;;9.60;99.90;;;;;;5062729;28;20303;-82
2023/03/19 07:20:21;;;;;;;9.97;9.67;;;9.70;99.90;;;;;;5062316;28;20262;-83
2023/03/19 07:22:51;;;;;;;9.93;9.63;;;9.70;99.90;;;;;;5062765;28;20246;-83
2023/03/19 07:25:20;;;;;;;9.90;9.60;;;9.80;99.90;;;;;;5062111;28;20291;-82
2023/03/19 07:27:49;;;;;;;10.20;9.90;;;9.80;99.90;;;;;;5062729;28;20239;-82
2023/03/19 07:30:18;;;;;;;10.20;9.90;;;9.90;99.90;;;;;;5061231;28;20269;-82
2023/03/19 07:32:48;;;;;;;10.20;9.90;;;10.10;99.90;;;;;;5071152;28;20257;-82
2023/03/19 07:35:17;;;;;;;10.00;9.70;;;10.20;99.90;;;;;;5067868;28;20290;-82
2023/03/19 07:37:47;;;;;;;10.00;9.70;;;10.20;99.90;;;;;;5078999;28;20226;-82
2023/03/19 07:40:17;;;;;;;9.80;9.50;;;10.20;99.90;;;;;;5074601;28;20285;-82
2023/03/19 07:42:46;;;;;;;9.90;9.60;;;10.20;99.90;;;;;;5064424;28;20235;-82
2023/03/19 07:45:26;;;;;;;10.10;9.80;;;10.40;99.90;;;;;;5073391;28;20332;-82
2023/03/19 07:47:53;;;;;;;10.03;9.73;;;10.40;99.90;;;;;;5081749;28;20248;-82
2023/03/19 07:50:22;;;;;;;10.07;9.77;;;10.40;99.90;;;;;;5088521;28;20293;-82
2023/03/19 07:52:51;;;;;;;10.13;9.83;;;10.50;99.90;;;;;;5090219;28;20299;-82
2023/03/19 07:55:23;;;;;;;10.00;9.70;;;10.50;99.90;;;;;;5084224;28;20226;-82
2023/03/19 07:57:51;;;;;;;10.00;9.70;;;10.50;99.90;;;;;;5082179;28;20206;-82
2023/03/19 08:00:23;;;;;;;10.20;9.90;;;10.50;99.90;;;;;;5082194;28;20296;-80
2023/03/19 08:02:50;;;;;;;10.27;9.97;;;10.60;99.90;;;;;;5070988;28;20265;-82
2023/03/19 08:05:21;;;;;;;10.30;10.00;;;10.60;99.90;;;;;;5070001;28;20237;-81
2023/03/19 08:07:50;;;;;;;9.80;9.50;;;10.60;99.90;;;;;;5059249;28;20330;-85
2023/03/19 08:10:20;;;;;;;10.33;10.03;;;10.70;99.90;;;;;;5062794;28;20240;-83
2023/03/19 08:12:49;;;;;;;10.40;10.10;;;10.80;99.90;;;;;;5062562;28;20234;-82
2023/03/19 08:15:19;;;;;;;10.27;9.97;;;10.70;99.90;;;;;;5062372;28;20325;-82
2023/03/19 08:17:59;;;;;;;10.30;10.00;;;10.80;99.90;;;;;;5061842;28;20229;-82
2023/03/19 08:20:26;;;;;;;10.30;10.00;;;10.80;99.90;;;;;;5061708;28;20268;-81
2023/03/19 08:22:56;;;;;;;10.20;9.90;;;10.80;99.90;;;;;;5063094;28;20276;-83
2023/03/19 08:25:25;;;;;;;10.47;10.17;;;10.90;99.90;;;;;;5062212;28;20245;-83
2023/03/19 08:27:55;;;;;;;10.30;10.00;;;10.90;99.90;;;;;;5064552;28;20329;-85
2023/03/19 08:30:25;;;;;;;10.70;10.40;;;11.00;99.90;;;;;;5072854;28;20280;-85
2023/03/19 08:33:04;;;;;;;10.00;9.70;;;11.00;99.90;;;;;;5082225;28;20256;-83
2023/03/19 08:35:32;;;;;;;10.47;10.17;;;11.00;99.90;;;;;;5080414;28;20215;-85
2023/03/19 08:38:02;;;;;;;10.47;10.17;;;11.10;99.90;;;;;;5064046;28;20229;-84
2023/03/19 08:40:31;;;;;;;10.30;10.00;;;11.10;99.90;;;;;;5075646;28;20325;-85
2023/03/19 08:43:01;;;;;;;9.93;9.63;;;11.10;99.90;;;;;;5082496;28;20313;-85
2023/03/19 08:45:29;;;;;;;10.20;9.90;;;11.10;99.90;;;;;;5068937;28;20266;-84
2023/03/19 08:48:09;;;;;;;10.10;9.80;;;11.10;99.90;;;;;;5078957;28;20269;-84
2023/03/19 08:50:38;;;;;;;10.10;9.80;;;11.10;99.90;;;;;;5068895;28;20257;-85
2023/03/19 08:53:07;;;;;;;10.20;9.90;;;11.00;99.90;;;;;;5065468;28;20270;-85
2023/03/19 08:55:36;;;;;;;10.40;10.10;;;11.00;99.90;;;;;;5063959;28;20287;-85
2023/03/19 08:58:05;;;;;;;10.40;10.10;;;11.00;99.90;;;;;;5061398;28;20229;-84
2023/03/19 09:00:36;;;;;;;10.10;9.80;;;11.10;99.90;;;;;;5067058;28;20242;-82
2023/03/19 09:03:14;;;;;;;9.90;9.60;;;11.00;99.90;;;;;;5075154;28;20222;-83
2023/03/19 09:05:43;;;;;;;9.77;9.47;;;11.00;99.90;;;;;;5082072;28;20286;-82
2023/03/19 09:08:12;;;;;;;10.00;9.70;;;11.00;99.90;;;;;;5081716;28;20236;-81
2023/03/19 09:10:40;;;;;;;10.30;10.00;;;11.10;99.90;;;;;;5081330;28;20240;-81
2023/03/19 09:13:13;;;;;;;9.90;9.60;;;11.20;99.90;;;;;;5081190;28;20313;-82
2023/03/19 09:15:40;;;;;;;9.80;9.50;;;11.20;99.90;;;;;;5080970;28;20214;-82
2023/03/19 09:18:14;;;;;;;9.83;9.53;;;11.30;99.90;;;;;;5081287;28;20251;-81
2023/03/19 09:20:42;;;;;;;10.10;9.80;;;11.30;99.90;;;;;;5062167;28;20234;-83
2023/03/19 09:23:09;;;;;;;9.70;9.40;;;11.30;99.90;;;;;;5073465;28;20293;-82
2023/03/19 09:25:39;;;;;;;9.63;9.33;;;11.40;99.90;;;;;;5063343;28;20230;-82
2023/03/19 09:28:08;;;;;;;9.83;9.53;;;11.40;99.90;;;;;;5070924;28;20272;-82
2023/03/19 09:30:37;;;;;;;9.80;9.50;;;11.40;99.90;;;;;;5077836;28;20266;-81
2023/03/19 09:33:06;;;;;;;9.80;9.50;;;11.40;99.90;;;;;;5060599;28;20234;-81
2023/03/19 09:35:38;;;;;;;9.97;9.67;;;11.50;99.90;;;;;;5058896;28;20226;-81
2023/03/19 09:38:06;;;;;;;9.93;9.63;;;11.50;99.90;;;;;;5066071;28;20231;-82
2023/03/19 09:40:44;;;;;;;10.30;10.00;;;11.60;99.90;;;;;;5076255;28;20726;-80
2023/03/19 09:43:53;;;;;;;10.07;9.77;;;11.60;99.90;;;;;;5074488;28;20238;-81
2023/03/19 09:46:26;;;;;;;10.20;9.90;;;11.60;99.90;;;;;;5068034;28;20293;-81
2023/03/19 09:48:59;;;;;;;10.00;9.70;;;11.50;99.90;;;;;;5080277;28;20233;-83
2023/03/19 09:51:36;;;;;;;10.20;9.90;;;11.60;99.90;;;;;;5077457;28;20230;-83
2023/03/19 09:54:07;;;;;;;9.97;9.67;;;11.60;99.90;;;;;;5071261;28;20223;-83
2023/03/19 09:56:35;;;;;;;10.00;9.70;;;11.60;99.90;;;;;;5064141;28;20281;-83
2023/03/19 09:59:03;;;;;;;10.00;9.70;;;11.70;99.90;;;;;;5067711;28;20226;-84
2023/03/19 10:01:36;;;;;;;9.70;9.40;;;11.70;99.90;;;;;;5080285;28;20237;-83
2023/03/19 10:04:47;;;;;;;10.00;9.70;;;11.80;99.90;;;;;;5068697;28;20241;-84
2023/03/19 10:07:37;;;;;;;10.00;9.70;;;11.70;99.90;;;;;;5061784;28;20237;-85
2023/03/19 10:10:22;;;;;;;10.07;9.77;;;11.60;99.90;;;;;;5067461;28;20219;-84
2023/03/19 10:13:00;;;;;;;10.10;9.80;;;11.50;99.90;;;;;;5067619;28;20257;-83
2023/03/19 10:15:30;;;;;;;10.23;9.93;;;11.40;99.90;;;;;;5067701;28;20266;-85
2023/03/19 10:18:09;;;;;;;10.13;9.83;;;11.40;99.90;;;;;;5066668;28;20243;-84
2023/03/19 10:20:48;;;;;;;10.20;9.90;;;11.40;99.90;;;;;;5065562;28;20236;-83
2023/03/19 10:23:43;;;;;;;9.90;9.60;;;11.30;99.90;;;;;;5065371;28;20230;-84
2023/03/19 10:26:22;;;;;;;10.13;9.83;;;11.20;99.90;;;;;;5072779;28;20289;-83
2023/03/19 10:29:08;;;;;;;9.97;9.67;;;11.20;99.90;;;;;;5064172;28;20333;-82
2023/03/19 10:31:46;;;;;;;10.10;9.80;;;11.20;99.90;;;;;;5063576;28;20211;-83
2023/03/19 10:34:32;;;;;;;10.17;9.87;;;11.20;99.90;;;;;;5064857;28;20239;-83
2023/03/19 10:37:02;;;;;;;10.00;9.70;;;11.20;99.90;;;;;;5062959;28;20230;-82
2023/03/19 10:39:41;;;;;;;9.90;9.60;;;11.30;99.90;;;;;;5064066;28;20241;-84
2023/03/19 10:42:45;;;;;;;9.60;9.30;;;11.30;99.90;;;;;;5064381;28;20237;-83
2023/03/19 10:45:23;;;;;;;9.80;9.50;;;11.30;99.90;;;;;;5065011;28;20234;-84
2023/03/19 10:47:54;;;;;;;9.70;9.40;;;11.30;99.90;;;;;;5064536;28;20330;-83
2023/03/19 10:50:30;;;;;;;9.80;9.50;;;11.20;99.90;;;;;;5064304;28;20288;-83
2023/03/19 10:53:08;;;;;;;9.27;8.97;;;11.30;99.90;;;;;;5064959;28;20338;-83
2023/03/19 10:55:48;;;;;;;10.03;9.73;;;11.40;99.90;;;;;;5064733;28;20257;-84
2023/03/19 10:58:18;;;;;;;9.63;9.33;;;11.50;99.90;;;;;;5064946;28;20231;-83
2023/03/19 11:00:48;;;;;;;9.77;9.47;;;11.60;99.90;;;;;;5063654;28;20243;-83
2023/03/19 11:03:32;;;;;;;9.80;9.50;;;11.70;99.90;;;;;;5063751;28;20211;-82
2023/03/19 11:06:20;;;;;;;9.57;9.27;;;11.70;99.90;;;;;;5068005;28;20265;-84
2023/03/19 11:08:57;;;;;;;9.77;9.47;;;11.60;99.90;;;;;;5068480;28;20246;-83
2023/03/19 11:11:36;;;;;;;9.80;9.50;;;11.70;99.90;;;;;;5065242;28;20238;-82
2023/03/19 11:14:12;;;;;;;9.20;8.90;;;11.80;99.90;;;;;;5063460;28;20226;-82
2023/03/19 11:17:02;;;;;;;8.90;8.60;;;12.00;99.90;;;;;;5067937;28;20251;-82
2023/03/19 11:19:33;;;;;;;9.40;9.10;;;12.20;99.90;;;;;;5064254;28;20239;-83
2023/03/19 11:22:19;;;;;;;9.73;9.43;;;12.40;99.90;;;;;;5064116;28;20249;-82
2023/03/19 11:24:55;;;;;;;9.30;9.00;;;12.50;99.90;;;;;;5064670;28;20230;-82
2023/03/19 11:27:35;;;;;;;9.47;9.17;;;12.60;99.90;;;;;;5063531;28;20358;-82
2023/03/19 11:30:13;;;;;;;9.43;9.13;;;12.80;99.90;;;;;;5052767;28;20266;-82
2023/03/19 11:33:09;;;;;;;9.70;9.40;;;13.10;99.90;;;;;;5048405;28;20290;-82
2023/03/19 11:35:41;;;;;;;9.50;9.20;;;13.60;99.90;;;;;;5050070;28;20285;-82
2023/03/19 11:38:18;;;;;;;9.73;9.43;;;14.10;99.90;;;;;;5049727;28;20239;-82
2023/03/19 11:40:55;;;;;;;9.55;9.25;;;14.40;99.90;;;;;;5045755;28;20235;-81
2023/03/19 11:43:45;;;;;;;9.50;9.20;;;14.80;99.90;;;;;;5047315;28;20251;-82
2023/03/19 11:46:28;;;;;;;9.90;9.60;;;14.90;99.90;;;;;;5046225;28;20223;-81
2023/03/19 11:52:29;;;;;;;10.23;9.93;;;15.60;99.90;;;;;;5046345;28;20239;-84
2023/03/19 11:55:15;;;;;;;10.20;9.90;;;16.10;99.90;;;;;;5046665;28;20211;-83
2023/03/19 11:58:20;;;;;;;10.13;9.82;;;16.10;99.90;;;;;;5045849;28;20318;-83
2023/03/19 12:01:16;;;;;;;10.30;10.00;;;16.20;99.90;;;;;;5045674;28;20330;-83
2023/03/19 12:04:06;;;;;;;10.30;10.00;;;16.20;99.90;;;;;;5045422;28;20321;-82
2023/03/19 12:06:52;;;;;;;10.27;9.98;;;16.60;99.90;;;;;;5044916;28;20234;-82
2023/03/19 12:09:30;;;;;;;10.13;9.82;;;16.70;99.90;;;;;;5044907;28;20255;-82
2023/03/19 12:12:08;;;;;;;10.13;9.82;;;16.90;99.90;;;;;;5044783;28;20266;-82
2023/03/19 12:14:55;;;;;;;10.13;9.82;;;17.00;99.90;;;;;;5045008;28;20239;-82
2023/03/19 12:17:52;;;;;;;10.40;10.10;;;17.10;99.90;;;;;;5045252;28;20227;-82
2023/03/19 12:20:37;;;;;;;10.40;10.10;;;17.30;99.90;;;;;;5046036;28;20283;-85
2023/03/19 12:23:24;;;;;;;10.40;10.10;;;17.70;99.90;;;;;;5042258;28;20265;-81
2023/03/19 12:26:07;;;;;;;10.60;10.30;;;18.00;99.90;;;;;;5043088;28;20286;-80
2023/03/19 12:28:41;;;;;;;10.50;10.20;;;18.30;99.90;;;;;;5042102;28;20231;-81
2023/03/19 12:31:28;;;;;;;10.27;9.98;;;18.30;99.90;;;;;;5040630;28;20235;-81
2023/03/19 12:34:15;;;;;;;10.00;9.70;;;18.10;99.90;;;;;;5042470;28;20221;-82
2023/03/19 12:36:53;;;;;;;10.40;10.10;;;18.00;99.90;;;;;;5043310;28;20239;-82
2023/03/19 12:39:34;;;;;;;10.20;9.90;;;17.90;99.90;;;;;;5043118;28;20222;-82
2023/03/19 12:42:05;;;;;;;10.25;9.95;;;18.00;99.90;;;;;;5043592;28;20251;-83
2023/03/19 12:44:40;;;;;;;10.50;10.20;;;17.80;99.90;;;;;;5044514;28;20259;-83
2023/03/19 12:47:12;;;;;;;10.45;10.15;;;17.70;99.90;;;;;;5044091;28;20227;-83
2023/03/19 12:49:49;;;;;;;10.20;9.90;;;17.80;99.90;;;;;;5041761;28;20235;-82
2023/03/19 12:52:26;;;;;;;10.10;9.80;;;18.00;99.90;;;;;;5042406;28;20239;-81
2023/03/19 12:55:06;;;;;;;10.57;10.27;;;18.30;99.90;;;;;;5042516;28;20222;-82
2023/03/19 12:57:43;;;;;;;10.13;9.82;;;18.50;99.90;;;;;;5042744;28;20212;-83
2023/03/19 13:00:20;;;;;;;10.27;9.98;;;19.00;99.90;;;;;;5042235;28;20329;-83
2023/03/19 13:02:59;;;;;;;10.20;9.90;;;19.20;99.90;;;;;;5042582;28;20286;-82
2023/03/19 13:05:37;;;;;;;10.35;10.05;;;19.00;99.90;;;;;;5043287;28;20223;-82
2023/03/19 13:08:16;;;;;;;10.60;10.30;;;18.70;99.90;;;;;;5043621;28;20246;-83